»·PEaware :: COA828 KIAH-MSLP

COA828 :: KIAH-MSLP

FLIGHT INFORMATION

Flight Status: Arrived
Operator:
Continental Air Lines
More flights by this operator :: More flights under this callsign
Pilot: Robby H. (353)
Aircraft: BOEING 767-200
(B762)
More flights by this aircraft type
Origin: KIAH G Bush Intercontinental/Houst
United States
Destination: MSLP El Salvador Intl
El Salvador
More flights between these airports :: More routes between these airports
Route: VUH3 B573 UB573 MID UA758 CAT
File this flight plan on PilotEdge
Remarks: / V /
Altitude:
(Current/Filed)
34,000ft
Speed:
(Current/Filed)
532kts
Departed: 01-Jan-12 11:03 AM
Arrived: 01-Jan-12 01:38 PM
Distance/Time
Traveled:
1052nm/2:35
Distance/Time
To Go:
Arrived

Flight Plot

Page will automatically refresh every two minutes.


Map Options




Map Legend


Flown Route
Filed Route
Departure Airport
Arrival Airport
Navaid (VOR, NDB)
Fix

Horizontal Profiles

Position Reports

Time Latitude Longitude Heading Altitude Ground
Speed
01-Jan-12 10:50 29.985250 -95.333496 29 109ft 0kts
01-Jan-12 10:51 29.985252 -95.333495 29 109ft 0kts
01-Jan-12 10:52 29.985253 -95.333494 29 109ft 0kts
01-Jan-12 10:53 29.985255 -95.333493 29 109ft 0kts
01-Jan-12 10:54 29.985257 -95.333491 29 109ft 0kts
01-Jan-12 10:56 29.984785 -95.333805 29 109ft 2kts
01-Jan-12 10:57 29.984459 -95.334022 29 109ft 0kts
01-Jan-12 10:58 29.984461 -95.334021 29 109ft 0kts
01-Jan-12 10:59 29.984580 -95.334181 262 109ft 2kts
01-Jan-12 11:00 29.978502 -95.334030 178 109ft 23kts
01-Jan-12 11:01 29.977654 -95.332644 88 109ft 30kts
01-Jan-12 11:02 29.977526 -95.291934 89 639ft 202kts
01-Jan-12 11:03 29.953878 -95.229916 156 3037ft 259kts
01-Jan-12 11:04 29.885140 -95.195133 153 4897ft 275kts
01-Jan-12 11:05 29.818477 -95.159593 152 6709ft 261kts
01-Jan-12 11:06 29.751439 -95.123772 153 8306ft 292kts
01-Jan-12 11:07 29.678324 -95.084834 153 10031ft 295kts
01-Jan-12 11:08 29.597333 -95.049305 164 11893ft 335kts
01-Jan-12 11:09 29.507294 -95.003845 155 13712ft 381kts
01-Jan-12 11:10 29.406222 -94.946922 156 15567ft 413kts
01-Jan-12 11:11 29.300340 -94.886542 152 17378ft 435kts
01-Jan-12 11:12 29.193105 -94.816028 150 18984ft 454kts
01-Jan-12 11:13 29.082152 -94.741041 150 19985ft 477kts
01-Jan-12 11:14 28.966301 -94.662558 149 20993ft 485kts
01-Jan-12 11:15 28.849779 -94.583727 152 22008ft 475kts
01-Jan-12 11:16 28.739200 -94.509466 146 23004ft 460kts
01-Jan-12 11:17 28.629592 -94.435772 146 24006ft 460kts
01-Jan-12 11:18 28.517665 -94.360719 146 25005ft 468kts
01-Jan-12 11:19 28.404328 -94.285122 151 26009ft 473kts
01-Jan-12 11:20 28.290510 -94.209158 148 27011ft 476kts
01-Jan-12 11:21 28.176238 -94.133148 149 28004ft 477kts
01-Jan-12 11:22 28.061913 -94.057352 150 28996ft 474kts
01-Jan-12 11:23 27.948910 -93.982588 151 29979ft 469kts
01-Jan-12 11:24 27.835228 -93.907584 151 30972ft 462kts
01-Jan-12 11:25 27.725695 -93.835499 150 31941ft 452kts
01-Jan-12 11:26 27.618527 -93.765139 149 32900ft 439kts
01-Jan-12 11:27 27.515441 -93.697559 150 33854ft 422kts
01-Jan-12 11:28 27.414074 -93.631238 155 34319ft 417kts
01-Jan-12 11:29 27.312750 -93.565253 155 34299ft 426kts
01-Jan-12 11:30 27.208897 -93.497703 153 34169ft 438kts
01-Jan-12 11:31 27.102332 -93.428429 154 34179ft 445kts
01-Jan-12 11:32 26.994563 -93.358604 153 34156ft 453kts
01-Jan-12 11:33 26.882761 -93.286300 154 34180ft 460kts
01-Jan-12 11:34 26.770888 -93.214126 153 34167ft 468kts
01-Jan-12 11:35 26.655926 -93.140142 153 34141ft 476kts
01-Jan-12 11:36 26.540891 -93.066276 153 34159ft 482kts
01-Jan-12 11:37 26.422796 -92.990634 153 34134ft 490kts
01-Jan-12 11:38 26.304323 -92.914905 153 34134ft 496kts
01-Jan-12 11:39 26.183485 -92.837887 153 34137ft 502kts
01-Jan-12 11:40 26.061641 -92.760448 153 34126ft 504kts
01-Jan-12 11:40 25.959273 -92.695603 153 34110ft 504kts
01-Jan-12 11:43 25.695116 -92.528829 153 34058ft 503kts
01-Jan-12 11:43 25.592949 -92.464554 153 34102ft 503kts
01-Jan-12 11:44 25.470849 -92.387927 153 34101ft 503kts
01-Jan-12 11:45 25.349601 -92.312009 152 34039ft 503kts
01-Jan-12 11:46 25.227366 -92.235633 152 33997ft 502kts
01-Jan-12 11:47 25.105878 -92.159896 152 33999ft 502kts
01-Jan-12 11:48 24.983893 -92.084030 152 33996ft 502kts
01-Jan-12 11:49 24.862021 -92.008423 152 33999ft 502kts
01-Jan-12 11:51 24.740724 -91.933331 152 33996ft 502kts
01-Jan-12 11:52 24.617932 -91.857493 152 33999ft 502kts
01-Jan-12 11:53 24.496637 -91.782737 152 33996ft 501kts
01-Jan-12 11:54 24.374378 -91.707442 152 33999ft 501kts
01-Jan-12 11:55 24.253592 -91.633260 153 33996ft 501kts
01-Jan-12 11:56 24.130203 -91.557714 153 33999ft 501kts
01-Jan-12 11:57 24.008457 -91.483336 153 33997ft 501kts
01-Jan-12 11:58 23.887281 -91.409354 153 33997ft 501kts
01-Jan-12 11:59 23.764634 -91.334689 153 33999ft 501kts
01-Jan-12 12:00 23.642221 -91.260312 153 33996ft 501kts
01-Jan-12 12:01 23.520450 -91.186537 153 33999ft 501kts
01-Jan-12 12:02 23.398118 -91.112527 153 33995ft 501kts
01-Jan-12 12:03 23.275731 -91.038719 153 34000ft 501kts
01-Jan-12 12:04 23.153084 -90.964852 153 33996ft 501kts
01-Jan-12 12:05 23.031258 -90.891608 153 33998ft 501kts
01-Jan-12 12:06 22.908707 -90.818093 153 33997ft 501kts
01-Jan-12 12:07 22.786432 -90.744901 153 33998ft 501kts
01-Jan-12 12:08 22.663557 -90.671429 153 34003ft 501kts
01-Jan-12 12:09 22.540827 -90.598316 153 34035ft 503kts
01-Jan-12 12:10 22.418545 -90.525573 153 34132ft 503kts
01-Jan-12 12:11 22.296144 -90.452938 153 34166ft 506kts
01-Jan-12 12:12 22.171291 -90.378930 153 34171ft 507kts
01-Jan-12 12:13 22.047888 -90.305976 154 34171ft 507kts
01-Jan-12 12:14 21.924249 -90.233121 154 34178ft 507kts
01-Jan-12 12:15 21.799475 -90.159596 154 34176ft 507kts
01-Jan-12 12:16 21.676075 -90.087011 154 34179ft 507kts
01-Jan-12 12:17 21.552675 -90.014657 154 34182ft 507kts
01-Jan-12 12:18 21.427475 -89.940853 152 34184ft 508kts
01-Jan-12 12:19 21.302271 -89.870433 158 34187ft 506kts
01-Jan-12 12:20 21.172561 -89.814637 162 34186ft 504kts
01-Jan-12 12:21 21.041328 -89.761063 162 34188ft 504kts
01-Jan-12 12:22 20.908864 -89.717075 169 34191ft 501kts
01-Jan-12 12:23 20.771541 -89.683293 170 34190ft 500kts
01-Jan-12 12:24 20.636782 -89.647893 170 34189ft 500kts
01-Jan-12 12:25 20.498736 -89.622977 177 34184ft 497kts
01-Jan-12 12:26 20.361332 -89.611134 179 34178ft 496kts
01-Jan-12 12:27 20.223314 -89.600822 179 34180ft 496kts
01-Jan-12 12:28 20.086728 -89.590327 179 34178ft 495kts
01-Jan-12 12:29 19.948361 -89.579706 179 34171ft 495kts
01-Jan-12 12:30 19.810634 -89.565099 175 34171ft 495kts
01-Jan-12 12:31 19.674185 -89.548782 178 34163ft 492kts
01-Jan-12 12:32 19.535994 -89.540894 180 34180ft 491kts
01-Jan-12 12:33 19.400918 -89.534088 180 34175ft 491kts
01-Jan-12 12:34 19.262822 -89.526938 180 34163ft 489kts
01-Jan-12 12:35 19.128001 -89.519993 180 34148ft 488kts
01-Jan-12 12:36 18.991695 -89.512913 180 34152ft 488kts
01-Jan-12 12:37 18.855780 -89.505969 180 34148ft 486kts
01-Jan-12 12:38 18.721109 -89.499056 180 34138ft 486kts
01-Jan-12 12:39 18.585196 -89.492089 180 34126ft 486kts
01-Jan-12 12:39 18.469866 -89.486165 180 34126ft 486kts
01-Jan-12 12:40 18.334774 -89.479230 180 34087ft 486kts
01-Jan-12 12:41 18.201250 -89.472422 180 34091ft 486kts
01-Jan-12 12:43 18.064629 -89.466056 182 34092ft 486kts
01-Jan-12 12:44 17.927669 -89.465497 180 34059ft 488kts
01-Jan-12 12:45 17.791925 -89.456024 178 34031ft 490kts
01-Jan-12 12:46 17.655466 -89.444350 178 34028ft 491kts
01-Jan-12 12:47 17.519816 -89.432956 178 34024ft 491kts
01-Jan-12 12:48 17.382758 -89.421494 178 34015ft 492kts
01-Jan-12 12:49 17.246271 -89.410095 178 34015ft 492kts
01-Jan-12 12:50 17.109161 -89.398687 178 34007ft 492kts
01-Jan-12 12:51 16.971544 -89.387219 178 34007ft 492kts
01-Jan-12 12:52 16.835555 -89.375891 178 34008ft 493kts
01-Jan-12 12:53 16.698453 -89.364406 178 34005ft 493kts
01-Jan-12 12:54 16.561274 -89.352897 178 34006ft 492kts
01-Jan-12 12:55 16.423901 -89.341385 178 34019ft 492kts
01-Jan-12 12:56 16.288474 -89.330060 178 34027ft 491kts
01-Jan-12 12:57 16.151323 -89.318661 178 34030ft 490kts
01-Jan-12 12:58 16.014489 -89.307350 178 34038ft 490kts
01-Jan-12 12:59 15.880063 -89.296281 178 34051ft 488kts
01-Jan-12 13:01 15.610534 -89.274095 178 34073ft 486kts
01-Jan-12 13:02 15.474955 -89.263010 178 34062ft 487kts
01-Jan-12 13:03 15.339355 -89.260921 189 34046ft 484kts
01-Jan-12 13:04 15.201758 -89.265117 176 34035ft 488kts
01-Jan-12 13:05 15.067751 -89.236634 166 34016ft 495kts
01-Jan-12 13:06 14.936569 -89.190383 162 34019ft 498kts
01-Jan-12 13:07 14.806717 -89.140144 162 34011ft 499kts
01-Jan-12 13:08 14.676787 -89.090231 162 34004ft 499kts
01-Jan-12 13:09 14.542889 -89.057860 182 34000ft 491kts
01-Jan-12 13:10 14.406988 -89.061069 184 34013ft 488kts
01-Jan-12 13:11 14.271133 -89.065875 184 34020ft 487kts
01-Jan-12 13:12 14.136445 -89.070688 184 34024ft 485kts
01-Jan-12 13:13 14.001048 -89.075540 184 34023ft 484kts
01-Jan-12 13:14 13.865100 -89.080387 184 34036ft 483kts
01-Jan-12 13:15 13.730735 -89.085150 184 34052ft 482kts
01-Jan-12 13:16 13.596932 -89.089951 184 34052ft 481kts
01-Jan-12 13:17 13.463248 -89.094798 184 33972ft 481kts
01-Jan-12 13:18 13.329205 -89.099714 184 33946ft 481kts
01-Jan-12 13:19 13.194631 -89.104713 184 33947ft 481kts
01-Jan-12 13:20 13.059869 -89.109770 184 33957ft 482kts
01-Jan-12 13:20 12.948757 -89.113951 184 33966ft 482kts
01-Jan-12 13:21 12.813394 -89.119092 184 33591ft 483kts
01-Jan-12 13:23 12.656472 -89.103157 154 28695ft 501kts
01-Jan-12 13:24 12.574046 -88.991942 104 24532ft 511kts
01-Jan-12 13:24 12.588810 -88.875464 63 21058ft 504kts
01-Jan-12 13:25 12.685762 -88.775686 31 16841ft 487kts
01-Jan-12 13:26 12.814805 -88.764367 339 12619ft 470kts
01-Jan-12 13:27 12.921352 -88.835100 324 8461ft 449kts
01-Jan-12 13:28 13.018460 -88.909960 321 4255ft 418kts
01-Jan-12 13:29 13.104910 -88.976814 320 3005ft 367kts
01-Jan-12 13:30 13.186753 -89.040449 320 3007ft 367kts
01-Jan-12 13:31 13.264987 -89.101477 323 2539ft 340kts
01-Jan-12 13:32 13.320920 -89.145168 324 1959ft 176kts
01-Jan-12 13:34 13.356983 -89.150290 30 1576ft 188kts
01-Jan-12 13:35 13.403555 -89.117281 34 1359ft 190kts
01-Jan-12 13:36 13.433827 -89.076020 67 280ft 171kts
01-Jan-12 13:37 13.443001 -89.050250 70 113ft 29kts
01-Jan-12 13:38 13.444861 -89.049488 250 113ft 23kts
01-Jan-12 13:39 13.444291 -89.054651 323 113ft 0kts
01-Jan-12 13:40 13.444291 -89.054651 323 113ft 0kts

Navigation Log

Ident Type
Flight plan parsing failed, navigation log unavailable